Terminal Aerodrome Forecast
Issued by NWS Twin Cities, MN

Home | Current Version | Previous Version | Text Only | Print | Product List | Glossary Off
Versions: 1 2 3 4 5 6 7 8 9 10 11 12 13 14 15 16 17 18 19 20

000
FTUS43 KMPX 160707 AAA
TAFSTC
TAF AMD
KSTC 160707Z 1607/1706 08004KT P6SM BKN005 OVC050
     FM161600 09005KT P6SM SCT006 OVC012
     FM170400 00000KT P6SM OVC006=

USA.gov is the U.S. government's official web portal to all federal, state and local government web resources and services.